createdAt,value
2024-05-09T00:00:18.394Z,11.7
2024-05-09T00:01:19.050Z,11.8
2024-05-09T00:02:24.654Z,12.7
2024-05-09T00:03:32.664Z,11.1
2024-05-09T00:04:38.045Z,16.9
2024-05-09T00:05:43.631Z,11.9
2024-05-09T00:06:51.499Z,11.9
2024-05-09T00:07:56.928Z,11
2024-05-09T00:09:02.239Z,11.2
2024-05-09T00:10:11.742Z,12.1
2024-05-09T00:11:13.099Z,13.1
2024-05-09T00:12:18.635Z,10.8
2024-05-09T00:13:26.887Z,11.5
2024-05-09T00:14:32.653Z,13.5
2024-05-09T00:15:37.834Z,11.8
2024-05-09T00:16:45.708Z,12.7
2024-05-09T00:17:51.375Z,13.9
2024-05-09T00:18:57.423Z,12.1
2024-05-09T00:20:05.168Z,11.6
2024-05-09T00:21:08.688Z,11.7
2024-05-09T00:22:14.199Z,12.2
2024-05-09T00:23:19.502Z,11.4
2024-05-09T00:24:24.650Z,13.7
2024-05-09T00:25:30.283Z,12.6
2024-05-09T00:26:35.613Z,12.7
2024-05-09T00:27:41.040Z,11.7
2024-05-09T00:28:46.685Z,11.8
2024-05-09T00:29:51.772Z,11.5
2024-05-09T00:30:57.568Z,12.2
2024-05-09T00:32:03.095Z,12.9
2024-05-09T00:33:09.686Z,12.1
2024-05-09T00:34:14.241Z,10.6
2024-05-09T00:35:19.713Z,13
2024-05-09T00:36:25.191Z,12.4
2024-05-09T00:37:30.630Z,12.4
2024-05-09T00:38:36.337Z,11.5
2024-05-09T00:39:41.517Z,11
2024-05-09T00:40:47.348Z,12.7
2024-05-09T00:41:52.819Z,12.5
2024-05-09T00:42:58.355Z,13
2024-05-09T00:44:03.951Z,13.6
2024-05-09T00:45:09.240Z,12
2024-05-09T00:46:15.001Z,11.9
2024-05-09T00:47:20.479Z,10.7
2024-05-09T00:48:26.044Z,11.6
2024-05-09T00:49:31.335Z,13.8
2024-05-09T00:50:37.524Z,11.7
2024-05-09T00:51:41.994Z,12.4
2024-05-09T00:52:47.759Z,12.5
2024-05-09T00:53:53.567Z,14.7
2024-05-09T00:54:58.917Z,13.6
2024-05-09T00:56:04.823Z,12.4
2024-05-09T00:57:10.206Z,12.5
2024-05-09T00:58:15.688Z,12.2
2024-05-09T00:59:21.207Z,13.5
2024-05-09T01:00:30.698Z,15.1
2024-05-09T01:01:32.108Z,12.7
2024-05-09T01:02:37.452Z,11.3
2024-05-09T01:03:43.037Z,13.1
2024-05-09T01:04:48.350Z,10.9
2024-05-09T01:05:53.860Z,12.5
2024-05-09T01:06:59.313Z,13.3
2024-05-09T01:08:07.964Z,10.5
2024-05-09T01:09:13.228Z,11.8
2024-05-09T01:10:23.989Z,13.2
2024-05-09T01:11:24.297Z,12
2024-05-09T01:12:29.939Z,17
2024-05-09T01:13:35.267Z,11.6
2024-05-09T01:14:40.731Z,11.7
2024-05-09T01:15:45.957Z,10.8
2024-05-09T01:16:51.509Z,12.2
2024-05-09T01:17:57.032Z,10.2
2024-05-09T01:19:02.467Z,14.7
2024-05-09T01:20:10.603Z,12.2
2024-05-09T01:21:13.174Z,13.5
2024-05-09T01:22:18.665Z,13.1
2024-05-09T01:23:24.073Z,13.1
2024-05-09T01:24:29.647Z,10.2
2024-05-09T01:25:34.873Z,11.7
2024-05-09T01:26:40.510Z,11.9
2024-05-09T01:27:45.891Z,11.5
2024-05-09T01:28:51.735Z,9.8
2024-05-09T01:29:57.045Z,9.2
2024-05-09T01:31:02.629Z,10.8
2024-05-09T01:32:07.842Z,11.9
2024-05-09T01:33:13.771Z,10.3
2024-05-09T01:34:19.389Z,10.8
2024-05-09T01:35:24.808Z,12.5
2024-05-09T01:36:30.409Z,10.4
2024-05-09T01:37:35.685Z,10.8
2024-05-09T01:38:41.532Z,10.8
2024-05-09T01:39:47.115Z,10.9
2024-05-09T01:40:52.496Z,13.3
2024-05-09T01:41:58.147Z,9.6
2024-05-09T01:43:03.486Z,11.3
2024-05-09T01:44:09.201Z,10.2
2024-05-09T01:45:14.533Z,11.5
2024-05-09T01:46:19.943Z,12.9
2024-05-09T01:47:25.463Z,11.9
2024-05-09T01:48:31.015Z,11.7
2024-05-09T01:49:36.339Z,12
2024-05-09T01:50:42.679Z,12
2024-05-09T01:51:46.502Z,12.4
2024-05-09T01:52:52.252Z,11.5
2024-05-09T01:53:57.725Z,14.6
2024-05-09T01:55:04.588Z,10.4
2024-05-09T01:56:11.366Z,11.7
2024-05-09T01:57:16.906Z,12.9
2024-05-09T01:58:22.278Z,10.6
2024-05-09T01:59:27.877Z,15.5
2024-05-09T02:00:37.270Z,10.9
2024-05-09T02:01:54.891Z,11.6
2024-05-09T02:02:44.564Z,11.3
2024-05-09T02:03:50.051Z,11.3
2024-05-09T02:04:55.580Z,11.5
2024-05-09T02:06:00.782Z,10.6
2024-05-09T02:07:06.504Z,10.7
2024-05-09T02:08:12.009Z,9.7
2024-05-09T02:09:17.604Z,9.8
2024-05-09T02:10:26.540Z,9.5
2024-05-09T02:11:28.789Z,10.4
2024-05-09T02:12:34.408Z,8.8
2024-05-09T02:13:39.733Z,10.8
2024-05-09T02:14:45.393Z,10.1
2024-05-09T02:15:51.118Z,9.9
2024-05-09T02:16:56.372Z,10.2
2024-05-09T02:18:02.232Z,9.5
2024-05-09T02:19:07.820Z,11.2
2024-05-09T02:20:18.569Z,9.4
2024-05-09T02:21:18.757Z,9
2024-05-09T02:22:23.978Z,9.6
2024-05-09T02:23:29.585Z,10.3
2024-05-09T02:24:34.974Z,11
2024-05-09T02:25:40.518Z,10.2
2024-05-09T02:26:45.713Z,13.9
2024-05-09T02:27:51.329Z,12.4
2024-05-09T02:28:59.464Z,10
2024-05-09T02:30:09.856Z,9.9
2024-05-09T02:31:12.111Z,10.9
2024-05-09T02:32:17.837Z,10.6
2024-05-09T02:33:23.223Z,10.1
2024-05-09T02:34:28.558Z,10.9
2024-05-09T02:35:34.186Z,11.1
2024-05-09T02:36:39.484Z,11.9
2024-05-09T02:37:44.830Z,11.3
2024-05-09T02:38:50.365Z,10.5
2024-05-09T02:39:55.567Z,11.3
2024-05-09T02:41:01.172Z,10.5
2024-05-09T02:42:06.317Z,10.6
2024-05-09T02:43:12.490Z,11
2024-05-09T02:44:17.755Z,10.3
2024-05-09T02:45:23.230Z,11.6
2024-05-09T02:46:28.812Z,9.4
2024-05-09T02:47:34.548Z,9.2
2024-05-09T02:48:40.101Z,12.3
2024-05-09T02:49:45.480Z,9.4
2024-05-09T02:50:50.864Z,10.2
2024-05-09T02:51:56.484Z,8.3
2024-05-09T02:53:01.794Z,9.8
2024-05-09T02:54:07.596Z,10.2
2024-05-09T02:55:15.791Z,12.3
2024-05-09T02:56:21.590Z,11.8
2024-05-09T02:57:26.951Z,9.9
2024-05-09T02:58:32.494Z,9.5
2024-05-09T02:59:38.262Z,11.4
2024-05-09T03:00:46.735Z,10.1
2024-05-09T03:01:52.262Z,11.4
2024-05-09T03:02:57.610Z,10.9
2024-05-09T03:04:03.037Z,10.1
2024-05-09T03:05:08.481Z,8.4
2024-05-09T03:06:13.988Z,10.1
2024-05-09T03:07:20.170Z,11.1
2024-05-09T03:08:24.670Z,11.5
2024-05-09T03:09:29.893Z,11.5
2024-05-09T03:10:37.114Z,9.9
2024-05-09T03:11:41.134Z,13.5
2024-05-09T03:12:46.825Z,9.3
2024-05-09T03:13:52.457Z,11
2024-05-09T03:14:58.056Z,12
2024-05-09T03:16:03.510Z,9.5
2024-05-09T03:17:08.895Z,10.6
2024-05-09T03:18:14.700Z,10.3
2024-05-09T03:19:20.085Z,11.1
2024-05-09T03:20:30.475Z,10.3
2024-05-09T03:21:30.972Z,10
2024-05-09T03:22:36.602Z,10.9
2024-05-09T03:23:42.000Z,11.6
2024-05-09T03:24:47.673Z,12.6
2024-05-09T03:25:53.146Z,11.1
2024-05-09T03:26:58.503Z,12.6
2024-05-09T03:28:03.961Z,12.9
2024-05-09T03:29:09.656Z,12.3
2024-05-09T03:30:25.501Z,13
2024-05-09T03:31:20.671Z,12.9
2024-05-09T03:32:26.358Z,13.5
2024-05-09T03:33:31.798Z,11.9
2024-05-09T03:34:37.059Z,13.6
2024-05-09T03:35:42.750Z,13.7
2024-05-09T03:36:48.148Z,10.6
2024-05-09T03:37:53.609Z,11.4
2024-05-09T03:38:58.984Z,11.7
2024-05-09T03:40:07.237Z,11.4
2024-05-09T03:41:10.827Z,12.4
2024-05-09T03:42:16.087Z,11.9
2024-05-09T03:43:21.727Z,13.2
2024-05-09T03:44:27.101Z,12
2024-05-09T03:45:32.654Z,15.4
2024-05-09T03:46:37.823Z,13.8
2024-05-09T03:47:43.307Z,11.8
2024-05-09T03:48:48.761Z,11.3
2024-05-09T03:49:54.306Z,15
2024-05-09T03:50:59.608Z,12.2
2024-05-09T03:52:05.089Z,12
2024-05-09T03:53:10.463Z,13.1
2024-05-09T03:54:16.089Z,17.4
2024-05-09T03:55:21.777Z,11.9
2024-05-09T03:56:27.327Z,11.2
2024-05-09T03:57:33.064Z,16
2024-05-09T03:58:38.682Z,13.3
2024-05-09T03:59:44.137Z,14.7
2024-05-09T04:00:49.736Z,13.8
2024-05-09T04:01:55.369Z,13
2024-05-09T04:03:00.945Z,10
2024-05-09T04:04:06.217Z,11.6
2024-05-09T04:05:11.470Z,11
2024-05-09T04:06:20.114Z,11.3
2024-05-09T04:07:28.431Z,12.4
2024-05-09T04:08:34.018Z,13
2024-05-09T04:09:39.367Z,13.4
2024-05-09T04:10:43.242Z,13.4
2024-05-09T04:11:46.878Z,13.4
2024-05-09T04:12:56.889Z,13.4
2024-05-09T04:14:03.818Z,11.3
2024-05-09T04:15:12.809Z,11.9
2024-05-09T04:16:14.934Z,11.7
2024-05-09T04:17:20.364Z,16
2024-05-09T04:18:25.922Z,12.3
2024-05-09T04:19:31.521Z,13
2024-05-09T04:20:38.982Z,11.9
2024-05-09T04:21:42.779Z,11.8
2024-05-09T04:22:48.211Z,12.9
2024-05-09T04:23:53.535Z,11.2
2024-05-09T04:24:59.195Z,13.2
2024-05-09T04:26:04.667Z,12.4
2024-05-09T04:27:10.140Z,12.4
2024-05-09T04:28:18.379Z,13
2024-05-09T04:29:24.074Z,13.8
2024-05-09T04:30:33.998Z,15.5
2024-05-09T04:31:34.807Z,14.1
2024-05-09T04:32:40.363Z,13
2024-05-09T04:33:45.883Z,14.5
2024-05-09T04:34:51.573Z,12.1
2024-05-09T04:35:56.844Z,14.1
2024-05-09T04:37:02.518Z,16.2
2024-05-09T04:38:08.221Z,14.3
2024-05-09T04:39:13.689Z,13
2024-05-09T04:40:24.072Z,13
2024-05-09T04:41:24.865Z,13.9
2024-05-09T04:42:30.286Z,16.2
2024-05-09T04:43:35.658Z,14.2
2024-05-09T04:44:41.230Z,15.9
2024-05-09T04:45:46.622Z,15
2024-05-09T04:46:52.162Z,13.5
2024-05-09T04:47:57.643Z,12.8
2024-05-09T04:49:02.849Z,13.5
2024-05-09T04:50:11.355Z,11.8
2024-05-09T04:51:13.824Z,13.2
2024-05-09T04:52:19.176Z,12.3
2024-05-09T04:53:24.725Z,12.7
2024-05-09T04:54:35.649Z,11.6
2024-05-09T04:55:35.769Z,12.2
2024-05-09T04:56:41.442Z,11.6
2024-05-09T04:57:46.748Z,13.3
2024-05-09T04:58:52.235Z,11.8
2024-05-09T04:59:57.548Z,12.2
2024-05-09T05:01:03.035Z,9.8
2024-05-09T05:02:08.315Z,11
2024-05-09T05:03:15.093Z,10.2
2024-05-09T05:04:19.161Z,13.6
2024-05-09T05:05:24.818Z,11.7
2024-05-09T05:06:30.122Z,13.8
2024-05-09T05:07:35.560Z,13.3
2024-05-09T05:08:41.098Z,12.6
2024-05-09T05:09:46.635Z,13.2
2024-05-09T05:10:52.050Z,11.8
2024-05-09T05:11:57.628Z,10.6
2024-05-09T05:13:03.208Z,12.2
2024-05-09T05:14:13.336Z,9.9
2024-05-09T05:15:19.124Z,11.9
2024-05-09T05:16:24.428Z,14.2
2024-05-09T05:17:32.902Z,11.4
2024-05-09T05:18:38.157Z,13.9
2024-05-09T05:19:43.886Z,12
2024-05-09T05:20:49.281Z,12
2024-05-09T05:21:54.777Z,11.9
2024-05-09T05:23:00.268Z,13.6
2024-05-09T05:24:05.627Z,12.6
2024-05-09T05:25:11.371Z,14.9
2024-05-09T05:26:16.882Z,12.9
2024-05-09T05:27:22.452Z,12
2024-05-09T05:28:27.812Z,12.6
2024-05-09T05:29:33.405Z,12.8
2024-05-09T05:30:39.242Z,12.9
2024-05-09T05:31:44.332Z,13.2
2024-05-09T05:32:49.907Z,13.5
2024-05-09T05:33:55.028Z,11.3
2024-05-09T05:35:00.836Z,15.7
2024-05-09T05:36:06.255Z,13.1
2024-05-09T05:37:11.787Z,12.8
2024-05-09T05:38:17.215Z,11.8
2024-05-09T05:39:22.838Z,11.1
2024-05-09T05:40:33.079Z,12.4
2024-05-09T05:41:33.835Z,13.3
2024-05-09T05:42:39.260Z,14
2024-05-09T05:43:44.907Z,11.9
2024-05-09T05:44:50.268Z,13.7
2024-05-09T05:45:55.741Z,13.6
2024-05-09T05:47:01.329Z,13.1
2024-05-09T05:48:06.932Z,11.4
2024-05-09T05:49:12.050Z,10.5
2024-05-09T05:50:20.969Z,11.6
2024-05-09T05:51:22.756Z,12.2
2024-05-09T05:52:27.923Z,13.5
2024-05-09T05:53:33.751Z,11.3
2024-05-09T05:54:41.518Z,11.3
2024-05-09T05:55:50.103Z,11.4
2024-05-09T05:56:55.388Z,11.2
2024-05-09T05:58:00.983Z,12.2
2024-05-09T05:59:06.859Z,13.1
2024-05-09T06:00:15.217Z,13
2024-05-09T06:01:17.981Z,13.3
2024-05-09T06:02:22.823Z,11.8
2024-05-09T06:03:27.491Z,13.5
2024-05-09T06:04:33.221Z,11.6
2024-05-09T06:05:37.923Z,13.9
2024-05-09T06:06:42.697Z,13.6
2024-05-09T06:07:48.246Z,12.4
2024-05-09T06:08:53.820Z,11.4
2024-05-09T06:09:59.290Z,16.3
2024-05-09T06:11:04.929Z,13.2
2024-05-09T06:12:10.563Z,13.8
2024-05-09T06:13:18.843Z,12.6
2024-05-09T06:14:24.500Z,12.8
2024-05-09T06:15:29.783Z,13.6
2024-05-09T06:16:35.272Z,14
2024-05-09T06:17:40.897Z,11.8
2024-05-09T06:18:46.521Z,13.7
2024-05-09T06:19:51.748Z,12.7
2024-05-09T06:20:57.364Z,12.8
2024-05-09T06:22:03.044Z,13
2024-05-09T06:23:08.729Z,14.4
2024-05-09T06:24:14.110Z,12.9
2024-05-09T06:25:19.325Z,11.7
2024-05-09T06:26:25.070Z,13.1
2024-05-09T06:27:30.480Z,17.3
2024-05-09T06:28:36.205Z,11.7
2024-05-09T06:29:42.087Z,12.9
2024-05-09T06:30:47.423Z,12.9
2024-05-09T06:31:53.083Z,12.5
2024-05-09T06:32:58.816Z,14.5
2024-05-09T06:34:04.239Z,16.3
2024-05-09T06:35:09.518Z,13.1
2024-05-09T06:36:15.072Z,14.9
2024-05-09T06:37:20.431Z,11.8
2024-05-09T06:38:25.906Z,14.3
2024-05-09T06:39:31.306Z,12.5
2024-05-09T06:40:38.228Z,13.8
2024-05-09T06:41:42.059Z,13
2024-05-09T06:42:47.577Z,13.3
2024-05-09T06:43:52.922Z,11.6
2024-05-09T06:44:58.372Z,12.2
2024-05-09T06:46:04.052Z,12.7
2024-05-09T06:47:09.411Z,15
2024-05-09T06:48:15.036Z,14.8
2024-05-09T06:49:20.435Z,13.3
2024-05-09T06:50:28.050Z,13.6
2024-05-09T06:51:31.220Z,12.6
2024-05-09T06:52:39.145Z,11.7
2024-05-09T06:53:44.904Z,14.1
2024-05-09T06:54:50.639Z,13.6
2024-05-09T06:55:56.097Z,14.5
2024-05-09T06:57:01.618Z,13.1
2024-05-09T06:58:07.523Z,14.4
2024-05-09T06:59:13.007Z,13.6
2024-05-09T07:00:22.628Z,11.4
2024-05-09T07:01:23.784Z,12.5
2024-05-09T07:02:34.236Z,11.5
2024-05-09T07:03:39.480Z,11.1
2024-05-09T07:04:44.942Z,12.2
2024-05-09T07:05:50.370Z,13.8
2024-05-09T07:06:55.818Z,11.6
2024-05-09T07:08:03.981Z,11.3
2024-05-09T07:09:09.566Z,13.1
2024-05-09T07:10:21.486Z,11.1
2024-05-09T07:11:20.502Z,11
2024-05-09T07:12:25.789Z,13.7
2024-05-09T07:13:31.361Z,11.2
2024-05-09T07:14:38.285Z,12
2024-05-09T07:15:41.987Z,14.1
2024-05-09T07:16:47.507Z,12.6
2024-05-09T07:17:53.166Z,9.9
2024-05-09T07:18:58.710Z,10.1
2024-05-09T07:20:05.495Z,10.9
2024-05-09T07:21:09.454Z,11.1
2024-05-09T07:22:15.162Z,14
2024-05-09T07:23:20.707Z,11.1
2024-05-09T07:24:26.247Z,13
2024-05-09T07:25:31.468Z,13
2024-05-09T07:26:37.013Z,12.7
2024-05-09T07:27:42.313Z,13
2024-05-09T07:28:47.826Z,10.9
2024-05-09T07:29:53.086Z,12.5
2024-05-09T07:30:58.714Z,12
2024-05-09T07:32:04.143Z,9.7
2024-05-09T07:33:09.483Z,12
2024-05-09T07:34:19.968Z,9.9
2024-05-09T07:35:25.131Z,9.5
2024-05-09T07:36:30.589Z,12.6
2024-05-09T07:37:35.981Z,11.2
2024-05-09T07:38:41.730Z,12.1
2024-05-09T07:39:47.325Z,12.3
2024-05-09T07:40:52.813Z,11.8
2024-05-09T07:42:00.844Z,12.4
2024-05-09T07:43:06.179Z,11.5
2024-05-09T07:44:11.297Z,12.1
2024-05-09T07:45:29.508Z,12
2024-05-09T07:49:43.869Z,11
2024-05-09T07:52:39.329Z,11.2
2024-05-09T07:54:01.170Z,12
2024-05-09T07:55:06.021Z,11.8
2024-05-09T07:56:11.928Z,11
2024-05-09T07:57:16.370Z,11.2
2024-05-09T07:58:21.733Z,14.1
2024-05-09T07:59:27.265Z,11.8
2024-05-09T08:00:32.880Z,12.5
2024-05-09T08:01:38.257Z,11.3
2024-05-09T08:02:43.752Z,12.1
2024-05-09T08:03:49.259Z,10.7
2024-05-09T08:04:57.631Z,11.8
2024-05-09T08:06:02.950Z,11.3
2024-05-09T08:07:08.513Z,11.8
2024-05-09T08:08:13.958Z,9.3
2024-05-09T08:09:21.066Z,10.2
2024-05-09T08:10:27.511Z,12.3
2024-05-09T08:11:30.435Z,9.4
2024-05-09T08:12:35.789Z,9.6
2024-05-09T08:13:41.172Z,10.8
2024-05-09T08:14:46.546Z,10.8
2024-05-09T08:15:52.203Z,9.8
2024-05-09T08:16:57.452Z,11.1
2024-05-09T08:18:03.324Z,10.7
2024-05-09T08:19:11.299Z,11.6
2024-05-09T08:20:22.788Z,10.7
2024-05-09T08:21:22.095Z,10.2
2024-05-09T08:22:27.579Z,11.5
2024-05-09T08:23:33.098Z,10
2024-05-09T08:24:38.748Z,9.3
2024-05-09T08:25:44.641Z,10.8
2024-05-09T08:26:50.125Z,10.7
2024-05-09T08:27:55.749Z,14
2024-05-09T08:29:01.415Z,12.1
2024-05-09T08:30:08.096Z,11.2
2024-05-09T08:31:12.586Z,14
2024-05-09T08:32:18.134Z,11.3
2024-05-09T08:33:23.589Z,11.7
2024-05-09T08:34:29.295Z,10.1
2024-05-09T08:35:35.087Z,11.4
2024-05-09T08:36:40.351Z,10.6
2024-05-09T08:37:45.468Z,10.4
2024-05-09T08:38:50.969Z,10
2024-05-09T08:39:56.251Z,12.9
2024-05-09T08:41:01.883Z,11.3
2024-05-09T08:42:07.123Z,11.1
2024-05-09T08:43:13.309Z,8.8
2024-05-09T08:44:18.350Z,11.1
2024-05-09T08:45:23.856Z,9.1
2024-05-09T08:46:29.325Z,11.4
2024-05-09T08:47:34.863Z,9.7
2024-05-09T08:48:40.215Z,11.2
2024-05-09T08:49:45.777Z,10.5
2024-05-09T08:50:50.650Z,9.8
2024-05-09T08:51:56.231Z,10.2
2024-05-09T08:53:01.347Z,9.5
2024-05-09T08:54:06.649Z,9.7
2024-05-09T08:55:12.161Z,9.1
2024-05-09T08:56:17.829Z,10
2024-05-09T08:57:22.865Z,10
2024-05-09T08:58:27.867Z,9.4
2024-05-09T08:59:33.350Z,9.9
2024-05-09T09:00:41.736Z,9.3
2024-05-09T09:01:47.202Z,11.7
2024-05-09T09:02:52.439Z,10.7
2024-05-09T09:03:58.067Z,12.1
2024-05-09T09:05:03.864Z,11
2024-05-09T09:06:09.331Z,9.5
2024-05-09T09:07:15.032Z,8.2
2024-05-09T09:08:20.278Z,13.2
2024-05-09T09:09:25.895Z,9.8
2024-05-09T09:10:31.847Z,10.5
2024-05-09T09:11:36.838Z,10.3
2024-05-09T09:12:42.167Z,8.1
2024-05-09T09:13:47.815Z,9
2024-05-09T09:14:53.210Z,9.8
2024-05-09T09:15:59.236Z,9.5
2024-05-09T09:17:06.607Z,11
2024-05-09T09:18:17.568Z,10.2
2024-05-09T09:19:22.837Z,10.2
2024-05-09T09:20:29.658Z,9.5
2024-05-09T09:21:33.783Z,7.5
2024-05-09T09:22:39.191Z,10.3
2024-05-09T09:23:44.460Z,9.6
2024-05-09T09:24:50.053Z,6.7
2024-05-09T09:25:55.289Z,8.4
2024-05-09T09:27:03.682Z,8
2024-05-09T09:28:09.439Z,11.9
2024-05-09T09:29:14.011Z,10.7
2024-05-09T09:30:27.375Z,9.7
2024-05-09T09:31:24.275Z,9.5
2024-05-09T09:32:29.676Z,10
2024-05-09T09:33:34.415Z,7.3
2024-05-09T09:34:44.047Z,7.7
2024-05-09T09:35:48.970Z,7.6
2024-05-09T09:36:54.328Z,9.4
2024-05-09T09:38:03.965Z,7.9
2024-05-09T09:39:09.175Z,9.2
2024-05-09T09:40:15.541Z,10.8
2024-05-09T09:41:18.759Z,9.4
2024-05-09T09:42:23.519Z,11.1
2024-05-09T09:43:31.970Z,10.9
2024-05-09T09:44:39.519Z,11.8
2024-05-09T09:45:42.843Z,11.3
2024-05-09T09:46:48.329Z,9.6
2024-05-09T09:47:54.030Z,10.4
2024-05-09T09:48:59.365Z,9.7
2024-05-09T09:50:11.989Z,12.1
2024-05-09T09:51:13.061Z,11.8
2024-05-09T09:52:18.626Z,9.4
2024-05-09T09:53:24.020Z,9.6
2024-05-09T09:54:29.559Z,13.2
2024-05-09T09:55:34.976Z,10
2024-05-09T09:56:40.391Z,14
2024-05-09T09:57:45.735Z,10.3
2024-05-09T09:58:51.423Z,10.8
2024-05-09T09:59:57.251Z,11
2024-05-09T10:01:02.736Z,10.8
2024-05-09T10:02:08.043Z,9.6
2024-05-09T10:03:13.626Z,9.5
2024-05-09T10:04:19.202Z,10.9
2024-05-09T10:05:24.636Z,9.5
2024-05-09T10:06:29.825Z,10.1
2024-05-09T10:07:38.291Z,9.9
2024-05-09T10:08:43.688Z,12.2
2024-05-09T10:09:49.149Z,9.5
2024-05-09T10:10:54.528Z,9.6
2024-05-09T10:12:00.686Z,10.3
2024-05-09T10:13:13.039Z,9.1
2024-05-09T10:14:18.444Z,11.3
2024-05-09T10:15:24.247Z,8.2
2024-05-09T10:16:29.612Z,10.4
2024-05-09T10:17:35.386Z,10.6
2024-05-09T10:18:41.216Z,9.3
2024-05-09T10:19:46.365Z,10.8
2024-05-09T10:20:51.696Z,10.9
2024-05-09T10:21:57.196Z,9.3
2024-05-09T10:23:07.600Z,9
2024-05-09T10:24:22.978Z,8.8
2024-05-09T10:25:28.424Z,9.8
2024-05-09T10:26:34.111Z,12.1
2024-05-09T10:27:39.271Z,8.1
2024-05-09T10:28:44.663Z,8.7
2024-05-09T10:29:50.113Z,10.9
2024-05-09T10:31:00.586Z,10.3
2024-05-09T10:32:10.924Z,8.9
2024-05-09T10:33:16.205Z,10.7
2024-05-09T10:34:24.890Z,10.4
2024-05-09T10:35:30.079Z,9.7
2024-05-09T10:36:35.766Z,10.4
2024-05-09T10:37:41.352Z,11.3
2024-05-09T10:38:46.820Z,10.1
2024-05-09T10:39:52.495Z,10.8
2024-05-09T10:41:00.439Z,12.5
2024-05-09T10:42:06.156Z,10.4
2024-05-09T10:43:11.715Z,10.5
2024-05-09T10:44:17.236Z,9.6
2024-05-09T10:45:22.547Z,12.5
2024-05-09T10:46:28.039Z,11.6
2024-05-09T10:47:36.316Z,10.3
2024-05-09T10:48:41.868Z,10.5
2024-05-09T10:49:47.250Z,11.4
2024-05-09T10:50:52.596Z,10.4
2024-05-09T10:51:57.918Z,12.5
2024-05-09T10:53:03.307Z,8.8
2024-05-09T10:54:08.636Z,11.2
2024-05-09T10:55:14.222Z,13
2024-05-09T10:56:19.587Z,11.9
2024-05-09T10:57:25.027Z,11.5
2024-05-09T10:58:30.746Z,11.9
2024-05-09T10:59:39.004Z,10.6
2024-05-09T11:00:44.831Z,9.5
2024-05-09T11:01:50.061Z,14.7
2024-05-09T11:02:55.493Z,11.5
2024-05-09T11:04:00.802Z,10.7
2024-05-09T11:05:06.287Z,12.8
2024-05-09T11:06:11.395Z,13.5
2024-05-09T11:07:19.460Z,12.7
2024-05-09T11:08:24.945Z,11.6
2024-05-09T11:09:30.770Z,8.5
2024-05-09T11:10:36.044Z,10.8
2024-05-09T11:11:41.744Z,13.2
2024-05-09T11:12:47.205Z,11.2
2024-05-09T11:13:52.810Z,10.6
2024-05-09T11:14:58.122Z,8.6
2024-05-09T11:16:03.530Z,11.6
2024-05-09T11:17:18.791Z,11.3
2024-05-09T11:18:24.914Z,10.8
2024-05-09T11:19:29.694Z,9.7
2024-05-09T11:20:35.776Z,11.4
2024-05-09T11:21:40.882Z,11.4
2024-05-09T11:22:46.445Z,11.3
2024-05-09T11:23:51.799Z,10.4
2024-05-09T11:24:57.260Z,10.8
2024-05-09T11:26:03.006Z,14
2024-05-09T11:27:08.324Z,11.5
2024-05-09T11:28:14.025Z,10.3
2024-05-09T11:29:19.540Z,12.7
2024-05-09T11:30:26.917Z,12.1
2024-05-09T11:31:30.452Z,11.5
2024-05-09T11:32:35.863Z,11.9
2024-05-09T11:33:41.280Z,10.4
2024-05-09T11:34:46.595Z,12.3
2024-05-09T11:35:54.657Z,13.3
2024-05-09T11:37:06.001Z,10.4
2024-05-09T11:38:11.328Z,14.4
2024-05-09T11:39:16.796Z,11.3
2024-05-09T11:40:25.021Z,12.8
2024-05-09T11:41:27.430Z,13.3
2024-05-09T11:42:33.021Z,10.1
2024-05-09T11:43:38.645Z,11
2024-05-09T11:44:43.848Z,12.4
2024-05-09T11:45:49.502Z,10.6
2024-05-09T11:46:54.930Z,12
2024-05-09T11:48:00.445Z,12.3
2024-05-09T11:49:05.773Z,13.7
2024-05-09T11:50:15.959Z,11.8
2024-05-09T11:51:16.481Z,10.6
2024-05-09T11:52:22.134Z,10.5
2024-05-09T11:53:27.596Z,12.7
2024-05-09T11:54:33.259Z,11.1
2024-05-09T11:55:38.513Z,10.4
2024-05-09T11:56:44.023Z,11.6
2024-05-09T11:57:49.703Z,12.2
2024-05-09T11:58:55.138Z,10.3
2024-05-09T12:00:01.130Z,12.1
2024-05-09T12:01:06.776Z,10.5
2024-05-09T12:02:12.386Z,11.8
2024-05-09T12:03:17.775Z,11
2024-05-09T12:04:23.436Z,11.4
2024-05-09T12:05:29.062Z,13.9
2024-05-09T12:06:34.116Z,9.6
2024-05-09T12:07:39.731Z,10.4
2024-05-09T12:08:45.086Z,10.3
2024-05-09T12:09:50.642Z,12.6
2024-05-09T12:10:56.340Z,10.4
2024-05-09T12:12:01.451Z,11.2
2024-05-09T12:13:07.456Z,11.6
2024-05-09T12:14:12.577Z,9.1
2024-05-09T12:15:18.206Z,12.8
2024-05-09T12:16:23.821Z,11.4
2024-05-09T12:17:29.522Z,13
2024-05-09T12:18:34.882Z,10.3
2024-05-09T12:19:40.517Z,11.5
2024-05-09T12:20:45.905Z,11.1
2024-05-09T12:21:51.375Z,10.8
2024-05-09T12:22:56.827Z,12.5
2024-05-09T12:24:02.375Z,13
2024-05-09T12:25:07.820Z,12.6
2024-05-09T12:26:13.356Z,11.3
2024-05-09T12:27:18.483Z,10.6
2024-05-09T12:28:24.090Z,8.8
2024-05-09T12:29:29.537Z,10.3
2024-05-09T12:30:37.153Z,9.9
2024-05-09T12:31:40.490Z,11.1
2024-05-09T12:32:46.113Z,10.6
2024-05-09T12:33:51.204Z,10.4
2024-05-09T12:34:56.891Z,9.6
2024-05-09T12:36:02.583Z,10.3
2024-05-09T12:37:08.086Z,10.1
2024-05-09T12:38:13.761Z,10.4
2024-05-09T12:39:22.805Z,9.8
2024-05-09T12:40:33.775Z,11.8
2024-05-09T12:41:33.462Z,9
2024-05-09T12:42:38.930Z,9
2024-05-09T12:43:44.472Z,7.9
2024-05-09T12:44:49.674Z,9.2
2024-05-09T12:45:55.280Z,11.4
2024-05-09T12:47:00.693Z,9.5
2024-05-09T12:48:06.427Z,9.8
2024-05-09T12:49:13.790Z,10.3
2024-05-09T12:50:22.266Z,10.5
2024-05-09T12:51:22.968Z,9.4
2024-05-09T12:52:28.446Z,10.8
2024-05-09T12:53:34.170Z,10.6
2024-05-09T12:54:39.659Z,12.7
2024-05-09T12:55:48.889Z,10.3
2024-05-09T12:56:50.725Z,8.8
2024-05-09T12:57:56.449Z,9.2
2024-05-09T12:59:01.816Z,9.8
2024-05-09T13:00:09.309Z,11.3
2024-05-09T13:01:13.312Z,10
2024-05-09T13:02:19.190Z,9.3
2024-05-09T13:03:24.542Z,10.9
2024-05-09T13:04:29.989Z,9.2
2024-05-09T13:05:35.462Z,12.6
2024-05-09T13:06:40.805Z,9.5
2024-05-09T13:07:46.512Z,8.8
2024-05-09T13:08:51.714Z,9.5
2024-05-09T13:09:57.074Z,12.1
2024-05-09T13:11:02.465Z,8.6
2024-05-09T13:12:08.158Z,9.6
2024-05-09T13:13:13.733Z,7.5
2024-05-09T13:14:19.173Z,9.7
2024-05-09T13:15:24.760Z,8.7
2024-05-09T13:16:30.193Z,12
2024-05-09T13:17:35.897Z,9.8
2024-05-09T13:18:41.367Z,7.9
2024-05-09T13:19:46.913Z,8.7
2024-05-09T13:20:52.291Z,9.5
2024-05-09T13:21:57.614Z,9.1
2024-05-09T13:23:02.995Z,9.1
2024-05-09T13:24:08.689Z,9.2
2024-05-09T13:25:14.046Z,8.2
2024-05-09T13:26:19.307Z,9.3
2024-05-09T13:27:24.752Z,8.5
2024-05-09T13:28:30.172Z,8.9
2024-05-09T13:29:35.702Z,9
2024-05-09T13:30:41.903Z,9.7
2024-05-09T13:31:46.622Z,8
2024-05-09T13:32:52.059Z,9
2024-05-09T13:33:57.420Z,8.3
2024-05-09T13:35:02.848Z,7.9
2024-05-09T13:36:08.166Z,8.4
2024-05-09T13:37:13.485Z,8.1
2024-05-09T13:38:19.474Z,9.6
2024-05-09T13:39:24.477Z,8.8
2024-05-09T13:40:33.204Z,8.1
2024-05-09T13:41:38.067Z,9.3
2024-05-09T13:42:45.128Z,10
2024-05-09T13:43:48.745Z,7.5
2024-05-09T13:44:54.516Z,7.7
2024-05-09T13:45:59.988Z,8
2024-05-09T13:47:05.643Z,7.5
2024-05-09T13:48:11.116Z,7.6
2024-05-09T13:49:16.432Z,9.6
2024-05-09T13:50:27.488Z,9
2024-05-09T13:51:27.144Z,9.1
2024-05-09T13:52:32.501Z,9.1
2024-05-09T13:53:38.335Z,7.8
2024-05-09T13:54:43.831Z,9
2024-05-09T13:55:49.469Z,7.9
2024-05-09T13:56:57.473Z,7.8
2024-05-09T13:58:02.969Z,7
2024-05-09T13:59:08.292Z,7.6
2024-05-09T14:00:22.705Z,7.9
2024-05-09T14:01:19.219Z,6.9
2024-05-09T14:02:24.531Z,8
2024-05-09T14:03:29.772Z,7.2
2024-05-09T14:04:34.576Z,8.5
2024-05-09T14:05:39.410Z,7.1
2024-05-09T14:06:44.743Z,9.1
2024-05-09T14:07:49.473Z,8.4
2024-05-09T14:08:54.624Z,7.7
2024-05-09T14:10:00.036Z,6.7
2024-05-09T14:11:04.868Z,9.8
2024-05-09T14:12:11.426Z,8.4
2024-05-09T14:13:16.046Z,8.2
2024-05-09T14:14:21.028Z,6.2
2024-05-09T14:15:25.768Z,9.4
2024-05-09T14:16:31.526Z,6.9
2024-05-09T14:17:36.916Z,7
2024-05-09T14:18:42.358Z,6.2
2024-05-09T14:19:47.725Z,8.5
2024-05-09T14:20:53.196Z,5.9
2024-05-09T14:21:58.785Z,8.8
2024-05-09T14:23:04.432Z,7.9
2024-05-09T14:24:09.616Z,6.2
2024-05-09T14:25:14.937Z,6.9
2024-05-09T14:26:20.306Z,7.1
2024-05-09T14:27:26.170Z,6.3
2024-05-09T14:28:31.622Z,7.4
2024-05-09T14:29:37.173Z,10.5
2024-05-09T14:30:42.874Z,8.5
2024-05-09T14:31:47.944Z,7.6
2024-05-09T14:32:53.392Z,7.4
2024-05-09T14:33:58.799Z,7.7
2024-05-09T14:35:04.243Z,7.9
2024-05-09T14:36:09.811Z,8.4
2024-05-09T14:37:15.420Z,8.8
2024-05-09T14:38:20.911Z,7.7
2024-05-09T14:39:26.590Z,7.7
2024-05-09T14:40:38.666Z,7
2024-05-09T14:41:37.387Z,7.3
2024-05-09T14:42:43.047Z,8.9
2024-05-09T14:43:48.389Z,8.1
2024-05-09T14:44:53.930Z,7.6
2024-05-09T14:45:59.374Z,8.3
2024-05-09T14:47:04.903Z,9.1
2024-05-09T14:48:10.393Z,7.6
2024-05-09T14:49:18.697Z,7.9
2024-05-09T14:50:28.000Z,7.6
2024-05-09T14:51:29.314Z,6.8
2024-05-09T14:52:34.615Z,6.1
2024-05-09T14:53:40.050Z,5.2